createdAt,value
2019-04-05T00:01:03.887Z,5.40
2019-04-05T00:03:33.718Z,4.80
2019-04-05T00:06:09.857Z,5.57
2019-04-05T00:08:39.669Z,5.20
2019-04-05T00:11:09.596Z,5.55
2019-04-05T00:13:39.416Z,5.30
2019-04-05T00:16:10.812Z,4.80
2019-04-05T00:18:40.608Z,5.27
2019-04-05T00:21:10.485Z,5.40
2019-04-05T00:23:41.140Z,4.90
2019-04-05T00:26:13.478Z,5.45
2019-04-05T00:28:43.302Z,4.92
2019-04-05T00:31:13.110Z,5.10
2019-04-05T00:33:42.946Z,5.45
2019-04-05T00:36:16.103Z,5.03
2019-04-05T00:38:45.906Z,5.10
2019-04-05T00:41:15.628Z,4.90
2019-04-05T00:43:45.462Z,5.17
2019-04-05T00:46:20.777Z,5.08
2019-04-05T00:48:50.649Z,5.40
2019-04-05T00:51:20.530Z,5.55
2019-04-05T00:53:50.357Z,5.50
2019-04-05T00:56:20.218Z,4.95
2019-04-05T00:58:50.021Z,5.40
2019-04-05T01:01:19.989Z,5.65
2019-04-05T01:03:49.877Z,5.47
2019-04-05T01:06:19.737Z,5.45
2019-04-05T01:08:49.615Z,5.83
2019-04-05T01:11:19.466Z,5.40
2019-04-05T01:13:49.998Z,5.75
2019-04-05T01:16:24.535Z,5.33
2019-04-05T01:18:54.386Z,5.40
2019-04-05T01:21:27.394Z,5.40
2019-04-05T01:23:58.886Z,5.35
2019-04-05T01:26:32.632Z,5.20
2019-04-05T01:29:02.419Z,5.60
2019-04-05T01:31:32.295Z,5.37
2019-04-05T01:34:02.052Z,5.50
2019-04-05T01:36:34.634Z,5.20
2019-04-05T01:39:05.897Z,4.95
2019-04-05T01:41:36.296Z,5.83
2019-04-05T01:44:06.065Z,5.40
2019-04-05T01:46:39.764Z,5.70
2019-04-05T01:49:09.520Z,5.30
2019-04-05T01:51:39.412Z,5.28
2019-04-05T01:54:09.237Z,5.45
2019-04-05T01:56:42.553Z,5.37
2019-04-05T01:59:12.374Z,5.40
2019-04-05T02:01:42.241Z,5.50
2019-04-05T02:04:12.013Z,5.60
2019-04-05T02:06:42.057Z,5.40
2019-04-05T02:09:12.310Z,5.47
2019-04-05T02:11:42.181Z,5.20
2019-04-05T02:14:12.030Z,5.35
2019-04-05T02:16:45.766Z,5.55
2019-04-05T02:19:15.606Z,5.37
2019-04-05T02:21:45.405Z,5.67
2019-04-05T02:24:15.164Z,5.55
2019-04-05T02:26:46.084Z,5.45
2019-04-05T02:29:15.946Z,5.70
2019-04-05T02:31:45.785Z,5.47
2019-04-05T02:34:15.552Z,5.60
2019-04-05T02:36:45.469Z,5.28
2019-04-05T02:39:15.305Z,5.12
2019-04-05T02:41:46.289Z,5.70
2019-04-05T02:44:16.533Z,5.60
2019-04-05T02:46:53.702Z,5.95
2019-04-05T02:49:26.395Z,5.62
2019-04-05T02:51:57.472Z,5.40
2019-04-05T02:54:27.864Z,5.50
2019-04-05T02:56:59.005Z,5.97
2019-04-05T02:59:29.917Z,5.70
2019-04-05T03:01:59.843Z,6.00
2019-04-05T03:04:30.019Z,5.62
2019-04-05T03:07:03.950Z,5.60
2019-04-05T03:09:34.602Z,5.75
2019-04-05T03:12:04.769Z,6.15
2019-04-05T03:14:35.096Z,5.72
2019-04-05T03:17:09.266Z,5.65
2019-04-05T03:19:40.227Z,5.92
2019-04-05T03:22:12.531Z,6.03
2019-04-05T03:24:45.528Z,6.08
2019-04-05T03:27:18.199Z,5.75
2019-04-05T03:29:47.916Z,5.83
2019-04-05T03:32:17.730Z,5.80
2019-04-05T03:34:48.518Z,5.85
2019-04-05T03:37:19.091Z,5.75
2019-04-05T03:39:49.053Z,5.55
2019-04-05T03:42:19.545Z,5.62
2019-04-05T03:44:49.414Z,5.60
2019-04-05T03:47:19.387Z,5.73
2019-04-05T03:49:49.295Z,5.67
2019-04-05T03:52:19.054Z,5.87
2019-04-05T03:54:49.389Z,5.90
2019-04-05T03:57:19.153Z,5.80
2019-04-05T03:59:48.983Z,5.50
2019-04-05T04:02:18.847Z,6.00
2019-04-05T04:04:48.637Z,5.53
2019-04-05T04:07:24.213Z,6.07
2019-04-05T04:09:54.041Z,5.95
2019-04-05T04:12:23.991Z,5.67
2019-04-05T04:14:54.861Z,6.03
2019-04-05T04:17:25.003Z,6.30
2019-04-05T04:19:54.719Z,5.80
2019-04-05T04:22:29.868Z,5.83
2019-04-05T04:24:59.941Z,6.12
2019-04-05T04:27:31.153Z,5.97
2019-04-05T04:30:01.522Z,5.97
2019-04-05T04:32:32.297Z,6.10
2019-04-05T04:35:03.127Z,5.87
2019-04-05T04:37:33.216Z,6.20
2019-04-05T04:40:03.441Z,5.95
2019-04-05T04:42:34.228Z,6.30
2019-04-05T04:45:11.843Z,5.75
2019-04-05T04:47:38.200Z,6.20
2019-04-05T04:50:09.903Z,6.22
2019-04-05T04:52:39.853Z,6.90
2019-04-05T04:55:10.753Z,6.35
2019-04-05T04:57:46.645Z,6.72
2019-04-05T05:00:16.559Z,6.40
2019-04-05T05:02:46.615Z,6.25
2019-04-05T05:05:16.912Z,6.35
2019-04-05T05:07:47.313Z,6.62
2019-04-05T05:10:17.201Z,6.42
2019-04-05T05:12:47.080Z,5.92
2019-04-05T05:15:17.908Z,6.17
2019-04-05T05:17:57.931Z,6.70
2019-04-05T05:20:19.555Z,6.62
2019-04-05T05:22:49.421Z,6.35
2019-04-05T05:25:19.341Z,6.45
2019-04-05T05:27:49.305Z,6.53
2019-04-05T05:30:19.180Z,6.60
2019-04-05T05:32:49.148Z,6.40
2019-04-05T05:35:19.052Z,6.47
2019-04-05T05:37:49.039Z,6.60
2019-04-05T05:40:19.207Z,6.60
2019-04-05T05:42:49.168Z,6.97
2019-04-05T05:45:19.089Z,6.83
2019-04-05T05:47:52.013Z,6.37
2019-04-05T05:50:20.280Z,6.40
2019-04-05T05:52:50.503Z,6.70
2019-04-05T05:55:20.308Z,6.35
2019-04-05T05:57:54.165Z,6.97
2019-04-05T06:00:23.131Z,6.40
2019-04-05T06:02:53.007Z,6.35
2019-04-05T06:05:22.886Z,6.40
2019-04-05T06:07:52.854Z,6.40
2019-04-05T06:10:22.732Z,6.35
2019-04-05T06:12:53.548Z,6.35
2019-04-05T06:15:30.855Z,5.85
2019-04-05T06:18:06.017Z,6.30
2019-04-05T06:20:37.867Z,6.47
2019-04-05T06:23:09.238Z,6.17
2019-04-05T06:25:40.161Z,6.40
2019-04-05T06:28:09.902Z,5.90
2019-04-05T06:30:39.732Z,6.33
2019-04-05T06:33:09.610Z,6.45
2019-04-05T06:35:39.437Z,5.80
2019-04-05T06:38:09.571Z,7.70
2019-04-05T06:40:40.978Z,6.47
2019-04-05T06:43:10.931Z,6.03
2019-04-05T06:45:40.838Z,6.30
2019-04-05T06:48:19.032Z,5.95
2019-04-05T06:50:42.008Z,5.75
2019-04-05T06:53:11.779Z,5.60
2019-04-05T06:55:43.722Z,5.80
2019-04-05T06:58:19.688Z,6.25
2019-04-05T07:00:56.941Z,5.70
2019-04-05T07:03:17.862Z,5.90
2019-04-05T07:05:47.799Z,5.97
2019-04-05T07:08:18.493Z,6.00
2019-04-05T07:10:48.464Z,5.50
2019-04-05T07:13:19.187Z,5.60
2019-04-05T07:15:49.011Z,5.50
2019-04-05T07:18:31.564Z,5.70
2019-04-05T07:20:52.395Z,5.60
2019-04-05T07:23:22.127Z,5.20
2019-04-05T07:25:51.914Z,5.60
2019-04-05T07:28:25.064Z,5.62
2019-04-05T07:30:54.659Z,5.67
2019-04-05T07:33:27.832Z,5.70
2019-04-05T07:35:57.670Z,5.30
2019-04-05T07:38:27.425Z,5.70
2019-04-05T07:40:57.255Z,5.45
2019-04-05T07:43:29.344Z,5.10
2019-04-05T07:45:59.340Z,5.17
2019-04-05T07:48:29.038Z,5.28
2019-04-05T07:50:58.925Z,5.40
2019-04-05T07:53:29.939Z,5.78
2019-04-05T07:56:00.794Z,5.65
2019-04-05T07:58:30.678Z,5.17
2019-04-05T08:01:02.000Z,5.58
2019-04-05T08:03:31.761Z,5.17
2019-04-05T08:06:02.659Z,5.05
2019-04-05T08:09:02.159Z,4.92
2019-04-05T08:11:32.479Z,5.28
2019-04-05T08:14:02.856Z,5.20
2019-04-05T08:16:32.693Z,5.03
2019-04-05T08:19:02.496Z,5.10
2019-04-05T08:21:32.286Z,5.37
2019-04-05T08:24:02.126Z,4.85
2019-04-05T08:26:32.849Z,5.17
2019-04-05T08:29:02.592Z,5.28
2019-04-05T08:31:32.528Z,5.20
2019-04-05T08:34:02.360Z,5.00
2019-04-05T08:36:34.890Z,4.70
2019-04-05T08:39:10.127Z,5.12
2019-04-05T08:41:39.913Z,5.35
2019-04-05T08:44:09.761Z,5.42
2019-04-05T08:46:40.572Z,4.95
2019-04-05T08:49:11.441Z,5.17
2019-04-05T08:51:43.267Z,5.08
2019-04-05T08:54:14.676Z,5.40
2019-04-05T08:56:44.487Z,5.17
2019-04-05T08:59:14.354Z,4.75
2019-04-05T09:01:44.088Z,4.40
2019-04-05T09:04:13.943Z,5.20
2019-04-05T09:06:43.796Z,4.87
2019-04-05T09:09:13.628Z,4.75
2019-04-05T09:11:43.458Z,5.08
2019-04-05T09:14:13.383Z,4.62
2019-04-05T09:16:43.133Z,4.45
2019-04-05T09:19:23.062Z,4.92
2019-04-05T09:21:44.265Z,4.75
2019-04-05T09:24:14.131Z,5.00
2019-04-05T09:26:43.864Z,4.45
2019-04-05T09:29:13.700Z,4.37
2019-04-05T09:31:43.443Z,4.17
2019-04-05T09:34:13.149Z,4.62
2019-04-05T09:36:43.010Z,4.45
2019-04-05T09:39:15.657Z,4.42
2019-04-05T09:41:44.395Z,4.20
2019-04-05T09:44:14.107Z,4.17
2019-04-05T09:46:50.668Z,4.43
2019-04-05T09:49:17.484Z,4.33
2019-04-05T09:51:47.341Z,4.08
2019-04-05T09:54:17.142Z,4.10
2019-04-05T09:56:47.016Z,3.95
2019-04-05T09:59:16.892Z,4.05
2019-04-05T10:01:46.611Z,4.08
2019-04-05T10:04:16.451Z,3.87
2019-04-05T10:06:46.410Z,3.75
2019-04-05T10:09:16.195Z,3.75
2019-04-05T10:11:46.104Z,3.67
2019-04-05T10:14:16.071Z,3.40
2019-04-05T10:16:46.924Z,3.25
2019-04-05T10:19:16.768Z,3.50
2019-04-05T10:21:46.554Z,3.60
2019-04-05T10:24:16.344Z,3.30
2019-04-05T10:26:47.352Z,3.20
2019-04-05T10:29:17.199Z,3.35
2019-04-05T10:31:49.375Z,3.22
2019-04-05T10:34:19.155Z,3.00
2019-04-05T10:36:48.923Z,3.20
2019-04-05T10:39:20.710Z,3.33
2019-04-05T10:42:02.722Z,3.12
2019-04-05T10:44:22.097Z,3.30
2019-04-05T10:46:52.079Z,3.10
2019-04-05T10:49:21.817Z,3.22
2019-04-05T10:51:53.692Z,2.80
2019-04-05T10:54:23.435Z,2.98
2019-04-05T10:56:55.265Z,2.90
2019-04-05T10:59:24.999Z,2.83
2019-04-05T11:01:54.776Z,2.80
2019-04-05T11:04:24.512Z,3.30
2019-04-05T11:06:54.302Z,2.70
2019-04-05T11:09:24.112Z,2.67
2019-04-05T11:11:53.879Z,2.80
2019-04-05T11:14:23.695Z,2.60
2019-04-05T11:16:58.633Z,2.77
2019-04-05T11:19:25.135Z,2.60
2019-04-05T11:21:54.899Z,2.25
2019-04-05T11:24:24.854Z,2.70
2019-04-05T11:26:55.659Z,2.30
2019-04-05T11:29:25.471Z,2.30
2019-04-05T11:31:57.443Z,2.30
2019-04-05T11:34:26.666Z,2.22
2019-04-05T11:36:56.562Z,2.15
2019-04-05T11:39:26.951Z,2.05
2019-04-05T11:41:58.238Z,1.90
2019-04-05T11:44:28.962Z,2.00
2019-04-05T11:46:58.773Z,2.10
2019-04-05T11:49:30.425Z,2.00
2019-04-05T11:52:00.301Z,2.00
2019-04-05T11:54:30.020Z,1.93
2019-04-05T11:57:06.060Z,1.90
2019-04-05T11:59:35.930Z,1.72
2019-04-05T12:02:23.327Z,1.90
2019-04-05T12:04:54.387Z,1.60
2019-04-05T12:07:26.574Z,1.52
2019-04-05T12:09:55.695Z,1.77
2019-04-05T12:12:25.681Z,1.52
2019-04-05T12:14:56.751Z,2.00
2019-04-05T12:17:26.587Z,1.98
2019-04-05T12:19:56.350Z,1.60
2019-04-05T12:22:26.151Z,1.98
2019-04-05T12:24:55.923Z,1.95
2019-04-05T12:27:25.738Z,1.80
2019-04-05T12:29:56.555Z,1.80
2019-04-05T12:32:34.600Z,1.90
2019-04-05T12:34:59.232Z,1.73
2019-04-05T12:37:28.999Z,1.80
2019-04-05T12:39:58.870Z,1.70
2019-04-05T12:42:29.030Z,1.80
2019-04-05T12:44:58.812Z,1.75
2019-04-05T12:47:28.659Z,1.75
2019-04-05T12:49:58.527Z,1.65
2019-04-05T12:52:28.379Z,1.83
2019-04-05T12:54:58.163Z,1.90
2019-04-05T13:00:17.630Z,1.90
2019-04-05T13:02:49.789Z,1.70
2019-04-05T13:05:21.254Z,1.80
2019-04-05T13:07:52.594Z,1.60
2019-04-05T13:10:25.192Z,1.70
2019-04-05T13:12:56.838Z,1.40
2019-04-05T13:15:25.543Z,1.50
2019-04-05T13:17:55.395Z,1.65
2019-04-05T13:20:25.232Z,1.90
2019-04-05T13:22:55.079Z,1.70
2019-04-05T13:25:25.024Z,1.80
2019-04-05T13:27:54.740Z,1.55
2019-04-05T13:30:24.586Z,1.67
2019-04-05T13:32:54.390Z,2.00
2019-04-05T13:35:24.173Z,1.80
2019-04-05T13:37:53.888Z,1.60
2019-04-05T13:40:23.686Z,2.10
2019-04-05T13:42:53.413Z,1.72
2019-04-05T13:45:23.278Z,1.85
2019-04-05T13:47:53.136Z,1.60
2019-04-05T13:50:22.933Z,1.80
2019-04-05T13:52:52.774Z,1.60
2019-04-05T13:55:22.606Z,1.55
2019-04-05T13:57:52.380Z,1.67
2019-04-05T14:00:22.215Z,1.75
2019-04-05T14:02:51.988Z,1.90
2019-04-05T14:05:22.705Z,1.72
2019-04-05T14:08:09.124Z,1.70
2019-04-05T14:10:24.227Z,1.75
2019-04-05T14:12:54.018Z,1.80
2019-04-05T14:15:23.801Z,2.00
2019-04-05T14:17:53.666Z,1.77
2019-04-05T14:20:24.540Z,1.95
2019-04-05T14:22:54.515Z,1.52
2019-04-05T14:25:26.074Z,1.50
2019-04-05T14:27:55.836Z,1.70
2019-04-05T14:30:25.591Z,1.80
2019-04-05T14:32:55.790Z,1.70
2019-04-05T14:35:26.722Z,1.60
2019-04-05T14:37:56.533Z,1.67
2019-04-05T14:40:28.782Z,1.70
2019-04-05T14:42:57.738Z,1.45
2019-04-05T14:45:27.561Z,1.60
2019-04-05T14:47:58.384Z,1.62
2019-04-05T14:50:28.933Z,1.70
2019-04-05T14:53:01.778Z,1.50
2019-04-05T14:55:30.625Z,1.57
2019-04-05T14:58:00.338Z,1.40
2019-04-05T15:00:30.139Z,1.60
2019-04-05T15:02:59.988Z,1.65
2019-04-05T15:05:29.782Z,1.60
2019-04-05T15:07:59.586Z,1.50
2019-04-05T15:10:29.446Z,1.77
2019-04-05T15:13:00.344Z,2.00
2019-04-05T15:15:31.256Z,2.20
2019-04-05T15:18:01.122Z,1.90
2019-04-05T15:20:32.701Z,1.65
2019-04-05T15:23:02.400Z,2.00
2019-04-05T15:25:32.189Z,2.30
2019-04-05T15:28:02.042Z,1.82
2019-04-05T15:30:31.983Z,2.00
2019-04-05T15:33:03.363Z,1.62
2019-04-05T15:35:33.220Z,2.40
2019-04-05T15:38:04.088Z,2.00
2019-04-05T15:40:33.983Z,2.10
2019-04-05T15:43:03.859Z,2.40
2019-04-05T15:45:33.668Z,2.33
2019-04-05T15:48:03.458Z,2.27
2019-04-05T15:50:33.318Z,2.10
2019-04-05T15:53:03.110Z,2.02
2019-04-05T15:55:34.999Z,1.92
2019-04-05T15:58:04.838Z,2.02
2019-04-05T16:00:45.132Z,2.47
2019-04-05T16:03:15.334Z,1.90
2019-04-05T16:05:47.766Z,4.55
2019-04-05T16:08:18.860Z,2.52
2019-04-05T16:10:49.735Z,2.22
2019-04-05T16:13:19.528Z,2.30
2019-04-05T16:16:10.249Z,2.40
2019-04-05T16:18:40.095Z,2.12
2019-04-05T16:21:09.868Z,2.50
2019-04-05T16:23:39.757Z,2.00
2019-04-05T16:26:09.490Z,2.20
2019-04-05T16:28:40.948Z,1.90
2019-04-05T16:31:11.036Z,2.00
2019-04-05T16:36:26.517Z,1.92
2019-04-05T16:38:57.280Z,1.70
2019-04-05T16:41:27.145Z,1.77
2019-04-05T16:43:56.974Z,1.77
2019-04-05T16:46:26.947Z,1.70
2019-04-05T16:48:56.771Z,2.00
2019-04-05T16:51:26.657Z,1.80
2019-04-05T16:54:00.247Z,1.75
2019-04-05T16:56:33.811Z,1.80
2019-04-05T16:59:06.587Z,1.57
2019-04-05T17:01:36.688Z,1.47
2019-04-05T17:04:06.524Z,1.57
2019-04-05T17:06:54.365Z,1.67
2019-04-05T17:09:24.143Z,1.77
2019-04-05T17:11:53.923Z,1.50
2019-04-05T17:14:23.766Z,1.50
2019-04-05T17:16:53.766Z,1.80
2019-04-05T17:19:43.368Z,1.80
2019-04-05T17:22:18.576Z,1.82
2019-04-05T17:24:52.115Z,2.70
2019-04-05T17:27:25.187Z,1.90
2019-04-05T17:29:56.598Z,1.95
2019-04-05T17:32:33.900Z,2.47
2019-04-05T17:35:09.359Z,2.95
2019-04-05T17:37:43.111Z,3.10
2019-04-05T17:40:12.952Z,3.40
2019-04-05T17:42:58.279Z,2.00
2019-04-05T17:45:31.351Z,2.95
2019-04-05T17:48:03.479Z,2.17
2019-04-05T17:50:34.379Z,2.30
2019-04-05T17:53:12.381Z,2.60
2019-04-05T17:55:53.243Z,2.60
2019-04-05T17:58:25.352Z,2.50
2019-04-05T18:00:55.280Z,2.80
2019-04-05T18:03:25.117Z,2.60
2019-04-05T18:06:03.487Z,2.77
2019-04-05T18:08:33.362Z,3.25
2019-04-05T18:11:03.519Z,2.63
2019-04-05T18:13:33.261Z,4.40
2019-04-05T18:16:40.678Z,3.27
2019-04-05T18:19:10.434Z,4.28
2019-04-05T18:21:40.269Z,6.33
2019-04-05T18:24:11.303Z,5.08
2019-04-05T18:26:41.426Z,5.17
2019-04-05T18:29:11.105Z,4.67
2019-04-05T18:31:40.986Z,5.10
2019-04-05T18:34:10.699Z,4.50
2019-04-05T18:36:41.601Z,5.20
2019-04-05T18:39:13.363Z,6.20
2019-04-05T18:41:53.134Z,6.55
2019-04-05T18:44:29.035Z,6.42
2019-04-05T18:47:04.932Z,7.77
2019-04-05T18:49:38.676Z,6.30
2019-04-05T18:52:08.542Z,8.70
2019-04-05T18:54:38.347Z,7.55
2019-04-05T19:01:03.912Z,7.80
2019-04-05T19:03:40.884Z,8.35
2019-04-05T19:06:12.750Z,8.30
2019-04-05T19:08:42.557Z,8.78
2019-04-05T19:11:13.872Z,8.08
2019-04-05T19:14:01.719Z,8.95
2019-04-05T19:16:33.651Z,8.90
2019-04-05T19:19:03.468Z,9.63
2019-04-05T19:21:34.175Z,9.70
2019-04-05T19:24:06.936Z,10.13
2019-04-05T19:26:54.656Z,9.60
2019-04-05T19:29:24.512Z,10.28
2019-04-05T19:49:48.179Z,12.73
2019-04-05T19:52:18.015Z,13.30
2019-04-05T19:54:47.890Z,11.83
2019-04-05T19:57:20.775Z,13.10
2019-04-05T19:59:50.652Z,12.18
2019-04-05T20:02:21.459Z,12.90
2019-04-05T20:04:52.383Z,13.00
2019-04-05T20:08:02.063Z,12.50
2019-04-05T20:10:31.916Z,13.23
2019-04-05T20:13:41.731Z,12.80
2019-04-05T20:16:23.903Z,13.65
2019-04-05T20:18:53.771Z,14.63
2019-04-05T20:21:23.666Z,14.38
2019-04-05T20:23:53.400Z,14.65
2019-04-05T20:26:23.306Z,14.50
2019-04-05T20:28:53.124Z,14.58
2019-04-05T20:31:23.024Z,15.30
2019-04-05T20:33:55.616Z,14.47
2019-04-05T20:36:26.575Z,14.53
2019-04-05T20:38:56.438Z,13.45
2019-04-05T20:41:26.296Z,14.60
2019-04-05T20:43:56.122Z,14.38
2019-04-05T20:46:25.926Z,13.48
2019-04-05T20:48:55.698Z,13.30
2019-04-05T20:51:27.028Z,13.90
2019-04-05T20:53:56.889Z,13.03
2019-04-05T20:56:28.736Z,13.15
2019-04-05T20:58:58.576Z,12.60
2019-04-05T21:01:28.426Z,13.28
2019-04-05T21:03:58.238Z,12.75
2019-04-05T21:06:28.123Z,12.77
2019-04-05T21:09:17.309Z,12.63
2019-04-05T21:11:49.545Z,12.20
2019-04-05T21:14:23.416Z,12.45
2019-04-05T21:16:53.345Z,12.58
2019-04-05T21:19:23.207Z,12.23
2019-04-05T21:21:53.147Z,12.47
2019-04-05T21:24:23.083Z,11.90
2019-04-05T21:27:04.836Z,11.73
2019-04-05T21:29:34.732Z,12.13
2019-04-05T21:32:04.493Z,12.33
2019-04-05T21:34:34.380Z,11.93
2019-04-05T21:37:06.789Z,12.45
2019-04-05T21:39:39.603Z,11.75
2019-04-05T21:42:10.952Z,12.00
2019-04-05T21:44:42.262Z,12.43
2019-04-05T21:47:12.066Z,12.30
2019-04-05T21:50:11.768Z,12.35
2019-04-05T21:52:41.541Z,12.43
2019-04-05T21:55:12.954Z,13.45
2019-04-05T21:57:44.853Z,13.05
2019-04-05T22:00:23.614Z,12.28
2019-04-05T22:02:57.565Z,14.37
2019-04-05T22:05:27.485Z,13.78
2019-04-05T22:07:58.899Z,13.97
2019-04-05T22:10:30.280Z,14.98
2019-04-05T22:13:04.330Z,14.47
2019-04-05T22:15:52.728Z,15.50
2019-04-05T22:18:22.583Z,15.25
2019-04-05T22:20:52.490Z,16.77
2019-04-05T22:23:22.451Z,17.43
2019-04-05T22:26:11.945Z,17.82
2019-04-05T22:28:42.421Z,18.25
2019-04-05T22:31:12.330Z,21.27
2019-04-05T22:33:42.890Z,19.15
2019-04-05T22:36:48.958Z,17.02
2019-04-05T22:39:21.533Z,18.98
2019-04-05T22:41:51.598Z,20.60
2019-04-05T22:44:21.373Z,22.05
2019-04-05T22:46:56.914Z,23.07
2019-04-05T22:49:26.750Z,24.43
2019-04-05T22:51:56.675Z,23.90
2019-04-05T22:54:26.508Z,23.55
2019-04-05T22:56:56.493Z,24.15
2019-04-05T22:59:26.416Z,26.42
2019-04-05T23:01:56.327Z,25.32
2019-04-05T23:04:26.230Z,26.48
2019-04-05T23:06:56.114Z,27.53
2019-04-05T23:09:27.080Z,27.32
2019-04-05T23:12:04.981Z,27.93
2019-04-05T23:14:34.854Z,27.93
2019-04-05T23:17:04.829Z,27.73
2019-04-05T23:19:34.758Z,29.52
2019-04-05T23:22:04.638Z,31.95
2019-04-05T23:24:40.575Z,31.50
2019-04-05T23:27:19.907Z,30.88
2019-04-05T23:29:49.778Z,32.33
2019-04-05T23:32:19.695Z,30.23
2019-04-05T23:34:49.609Z,31.75
2019-04-05T23:37:23.209Z,32.33
2019-04-05T23:39:53.068Z,31.10
2019-04-05T23:42:22.993Z,33.00
2019-04-05T23:44:52.874Z,34.50
2019-04-05T23:47:29.019Z,34.60
2019-04-05T23:49:58.926Z,34.08
2019-04-05T23:52:30.401Z,35.10
2019-04-05T23:55:00.334Z,34.60
2019-04-05T23:57:34.695Z,34.87
